sensor_id;sensor_type;location;lat;lon;timestamp;pressure;altitude;pressure_sealevel;temperature;humidity
58243;BME280;50118;53.232;8.252;2024-02-14T00:01:13;101333.03;;;5.34;100.00
58243;BME280;50118;53.232;8.252;2024-02-14T00:03:39;101335.88;;;5.31;100.00
58243;BME280;50118;53.232;8.252;2024-02-14T00:06:05;101336.84;;;5.30;100.00
58243;BME280;50118;53.232;8.252;2024-02-14T00:08:31;101323.25;;;5.21;100.00
58243;BME280;50118;53.232;8.252;2024-02-14T00:10:56;101323.34;;;5.20;100.00
58243;BME280;50118;53.232;8.252;2024-02-14T00:13:22;101329.66;;;5.17;100.00
58243;BME280;50118;53.232;8.252;2024-02-14T00:15:47;101330.22;;;5.22;100.00
58243;BME280;50118;53.232;8.252;2024-02-14T00:18:13;101320.25;;;5.13;100.00
58243;BME280;50118;53.232;8.252;2024-02-14T00:20:40;101330.63;;;5.16;100.00
58243;BME280;50118;53.232;8.252;2024-02-14T00:23:06;101318.53;;;5.12;100.00
58243;BME280;50118;53.232;8.252;2024-02-14T00:25:31;101313.47;;;5.09;100.00
58243;BME280;50118;53.232;8.252;2024-02-14T00:27:57;101304.75;;;5.07;100.00
58243;BME280;50118;53.232;8.252;2024-02-14T00:30:26;101300.44;;;5.06;100.00
58243;BME280;50118;53.232;8.252;2024-02-14T00:32:51;101295.16;;;5.06;100.00
58243;BME280;50118;53.232;8.252;2024-02-14T00:35:17;101285.63;;;5.03;100.00
58243;BME280;50118;53.232;8.252;2024-02-14T00:37:42;101287.63;;;5.14;100.00
58243;BME280;50118;53.232;8.252;2024-02-14T00:40:08;101283.84;;;5.04;100.00
58243;BME280;50118;53.232;8.252;2024-02-14T00:42:34;101284.59;;;5.06;100.00
58243;BME280;50118;53.232;8.252;2024-02-14T00:44:59;101273.94;;;5.08;100.00
58243;BME280;50118;53.232;8.252;2024-02-14T00:47:25;101264.59;;;5.02;100.00
58243;BME280;50118;53.232;8.252;2024-02-14T00:49:50;101259.31;;;5.02;100.00
58243;BME280;50118;53.232;8.252;2024-02-14T00:52:17;101255.09;;;4.99;100.00
58243;BME280;50118;53.232;8.252;2024-02-14T00:54:42;101252.34;;;5.01;100.00
58243;BME280;50118;53.232;8.252;2024-02-14T00:57:07;101245.38;;;5.00;100.00
58243;BME280;50118;53.232;8.252;2024-02-14T00:59:33;101241.78;;;5.01;100.00
58243;BME280;50118;53.232;8.252;2024-02-14T01:01:58;101241.97;;;4.98;100.00
58243;BME280;50118;53.232;8.252;2024-02-14T01:04:24;101240.47;;;4.94;100.00
58243;BME280;50118;53.232;8.252;2024-02-14T01:06:50;101236.63;;;4.85;100.00
58243;BME280;50118;53.232;8.252;2024-02-14T01:09:18;101219.94;;;4.84;100.00
58243;BME280;50118;53.232;8.252;2024-02-14T01:11:43;101220.31;;;4.78;100.00
58243;BME280;50118;53.232;8.252;2024-02-14T01:14:09;101214.59;;;4.72;100.00
58243;BME280;50118;53.232;8.252;2024-02-14T01:16:42;101216.28;;;4.73;100.00
58243;BME280;50118;53.232;8.252;2024-02-14T01:19:07;101211.00;;;4.73;100.00
58243;BME280;50118;53.232;8.252;2024-02-14T01:21:33;101213.16;;;4.80;100.00
58243;BME280;50118;53.232;8.252;2024-02-14T01:23:58;101213.34;;;4.77;100.00
58243;BME280;50118;53.232;8.252;2024-02-14T01:26:24;101203.63;;;4.78;100.00
58243;BME280;50118;53.232;8.252;2024-02-14T01:28:49;101200.53;;;4.85;100.00
58243;BME280;50118;53.232;8.252;2024-02-14T01:31:14;101200.31;;;4.89;100.00
58243;BME280;50118;53.232;8.252;2024-02-14T01:33:40;101197.03;;;4.85;100.00
58243;BME280;50118;53.232;8.252;2024-02-14T01:36:05;101192.94;;;4.94;100.00
58243;BME280;50118;53.232;8.252;2024-02-14T01:38:31;101187.66;;;4.94;100.00
58243;BME280;50118;53.232;8.252;2024-02-14T01:41:01;101182.28;;;4.95;100.00
58243;BME280;50118;53.232;8.252;2024-02-14T01:43:28;101182.56;;;5.05;100.00
58243;BME280;50118;53.232;8.252;2024-02-14T01:45:55;101176.06;;;4.96;100.00
58243;BME280;50118;53.232;8.252;2024-02-14T01:48:23;101179.47;;;4.98;100.00
58243;BME280;50118;53.232;8.252;2024-02-14T01:50:49;101174.81;;;5.02;100.00
58243;BME280;50118;53.232;8.252;2024-02-14T01:53:14;101164.91;;;5.05;100.00
58243;BME280;50118;53.232;8.252;2024-02-14T01:55:40;101155.59;;;5.00;100.00
58243;BME280;50118;53.232;8.252;2024-02-14T01:58:06;101158.78;;;5.05;100.00
58243;BME280;50118;53.232;8.252;2024-02-14T02:00:31;101153.69;;;5.02;100.00
58243;BME280;50118;53.232;8.252;2024-02-14T02:02:58;101144.00;;;5.02;100.00
58243;BME280;50118;53.232;8.252;2024-02-14T02:05:23;101152.16;;;5.12;100.00
58243;BME280;50118;53.232;8.252;2024-02-14T02:07:49;101142.47;;;5.13;100.00
58243;BME280;50118;53.232;8.252;2024-02-14T02:10:14;101148.97;;;5.07;100.00
58243;BME280;50118;53.232;8.252;2024-02-14T02:12:40;101141.03;;;5.07;100.00
58243;BME280;50118;53.232;8.252;2024-02-14T02:15:07;101142.38;;;5.14;100.00
58243;BME280;50118;53.232;8.252;2024-02-14T02:17:36;101128.00;;;5.18;100.00
58243;BME280;50118;53.232;8.252;2024-02-14T02:20:02;101129.47;;;5.22;100.00
58243;BME280;50118;53.232;8.252;2024-02-14T02:22:27;101120.81;;;5.20;100.00
58243;BME280;50118;53.232;8.252;2024-02-14T02:24:57;101111.22;;;5.19;100.00
58243;BME280;50118;53.232;8.252;2024-02-14T02:27:22;101115.09;;;5.14;100.00
58243;BME280;50118;53.232;8.252;2024-02-14T02:29:48;101111.81;;;5.10;100.00
58243;BME280;50118;53.232;8.252;2024-02-14T02:32:13;101100.50;;;5.08;100.00
58243;BME280;50118;53.232;8.252;2024-02-14T02:34:40;101089.94;;;5.08;100.00
58243;BME280;50118;53.232;8.252;2024-02-14T02:37:05;101077.09;;;5.16;100.00
58243;BME280;50118;53.232;8.252;2024-02-14T02:39:34;101075.38;;;5.15;100.00
58243;BME280;50118;53.232;8.252;2024-02-14T02:42:01;101070.38;;;5.11;100.00
58243;BME280;50118;53.232;8.252;2024-02-14T02:44:27;101078.47;;;5.22;100.00
58243;BME280;50118;53.232;8.252;2024-02-14T02:46:52;101073.28;;;5.20;100.00
58243;BME280;50118;53.232;8.252;2024-02-14T02:49:18;101074.56;;;5.28;100.00
58243;BME280;50118;53.232;8.252;2024-02-14T02:51:43;101071.19;;;5.26;100.00
58243;BME280;50118;53.232;8.252;2024-02-14T02:54:09;101061.97;;;5.18;100.00
58243;BME280;50118;53.232;8.252;2024-02-14T02:56:36;101063.13;;;5.14;100.00
58243;BME280;50118;53.232;8.252;2024-02-14T02:59:01;101059.81;;;5.11;100.00
58243;BME280;50118;53.232;8.252;2024-02-14T03:01:28;101055.50;;;5.10;100.00
58243;BME280;50118;53.232;8.252;2024-02-14T03:03:56;101052.56;;;5.14;100.00
58243;BME280;50118;53.232;8.252;2024-02-14T03:06:23;101044.84;;;5.11;100.00
58243;BME280;50118;53.232;8.252;2024-02-14T03:08:49;101041.59;;;5.20;100.00
58243;BME280;50118;53.232;8.252;2024-02-14T03:11:15;101047.84;;;5.19;100.00
58243;BME280;50118;53.232;8.252;2024-02-14T03:13:40;101042.66;;;5.18;100.00
58243;BME280;50118;53.232;8.252;2024-02-14T03:16:06;101042.31;;;5.22;100.00
58243;BME280;50118;53.232;8.252;2024-02-14T03:18:32;101033.97;;;5.16;100.00
58243;BME280;50118;53.232;8.252;2024-02-14T03:20:58;101036.31;;;5.20;100.00
58243;BME280;50118;53.232;8.252;2024-02-14T03:23:23;101045.50;;;5.28;100.00
58243;BME280;50118;53.232;8.252;2024-02-14T03:25:48;101047.09;;;5.30;100.00
58243;BME280;50118;53.232;8.252;2024-02-14T03:28:14;101039.91;;;5.32;100.00
58243;BME280;50118;53.232;8.252;2024-02-14T03:30:39;101037.91;;;5.36;100.00
58243;BME280;50118;53.232;8.252;2024-02-14T03:33:05;101037.16;;;5.34;100.00
58243;BME280;50118;53.232;8.252;2024-02-14T03:35:33;101033.47;;;5.23;100.00
58243;BME280;50118;53.232;8.252;2024-02-14T03:38:01;101032.72;;;5.21;100.00
58243;BME280;50118;53.232;8.252;2024-02-14T03:40:26;101026.91;;;5.29;100.00
58243;BME280;50118;53.232;8.252;2024-02-14T03:42:52;101032.09;;;5.31;100.00
58243;BME280;50118;53.232;8.252;2024-02-14T03:45:18;101023.63;;;5.26;100.00
58243;BME280;50118;53.232;8.252;2024-02-14T03:47:44;101025.13;;;5.30;100.00
58243;BME280;50118;53.232;8.252;2024-02-14T03:50:10;101026.41;;;5.37;100.00
58243;BME280;50118;53.232;8.252;2024-02-14T03:52:35;101017.75;;;5.35;100.00
58243;BME280;50118;53.232;8.252;2024-02-14T03:55:01;101014.22;;;5.34;100.00
58243;BME280;50118;53.232;8.252;2024-02-14T03:57:27;101025.97;;;5.43;100.00
58243;BME280;50118;53.232;8.252;2024-02-14T03:59:57;101020.16;;;5.38;100.00
58243;BME280;50118;53.232;8.252;2024-02-14T04:02:22;101020.47;;;5.46;100.00
58243;BME280;50118;53.232;8.252;2024-02-14T04:04:53;101018.69;;;5.47;100.00
58243;BME280;50118;53.232;8.252;2024-02-14T04:07:18;101022.91;;;5.49;100.00
58243;BME280;50118;53.232;8.252;2024-02-14T04:09:44;101014.47;;;5.44;100.00
58243;BME280;50118;53.232;8.252;2024-02-14T04:12:09;101016.91;;;5.47;100.00
58243;BME280;50118;53.232;8.252;2024-02-14T04:14:36;101016.25;;;5.56;100.00
58243;BME280;50118;53.232;8.252;2024-02-14T04:17:03;101018.56;;;5.61;100.00
58243;BME280;50118;53.232;8.252;2024-02-14T04:19:29;101009.09;;;5.58;100.00
58243;BME280;50118;53.232;8.252;2024-02-14T04:21:54;101009.19;;;5.57;100.00
58243;BME280;50118;53.232;8.252;2024-02-14T04:24:20;101005.25;;;5.63;100.00
58243;BME280;50118;53.232;8.252;2024-02-14T04:26:46;101005.06;;;5.66;100.00
58243;BME280;50118;53.232;8.252;2024-02-14T04:29:13;100997.53;;;5.59;100.00
58243;BME280;50118;53.232;8.252;2024-02-14T04:31:38;100993.22;;;5.58;100.00
58243;BME280;50118;53.232;8.252;2024-02-14T04:34:04;100994.91;;;5.59;100.00
58243;BME280;50118;53.232;8.252;2024-02-14T04:36:32;100988.34;;;5.52;100.00
58243;BME280;50118;53.232;8.252;2024-02-14T04:39:00;100983.69;;;5.56;100.00
58243;BME280;50118;53.232;8.252;2024-02-14T04:41:26;100987.69;;;5.61;100.00
58243;BME280;50118;53.232;8.252;2024-02-14T04:43:51;100982.41;;;5.61;100.00
58243;BME280;50118;53.232;8.252;2024-02-14T04:46:17;100981.91;;;5.69;100.00
58243;BME280;50118;53.232;8.252;2024-02-14T04:48:42;100986.66;;;5.64;100.00
58243;BME280;50118;53.232;8.252;2024-02-14T04:51:07;100985.38;;;5.70;100.00
58243;BME280;50118;53.232;8.252;2024-02-14T04:53:33;100980.09;;;5.70;100.00
58243;BME280;50118;53.232;8.252;2024-02-14T04:55:59;100985.38;;;5.70;100.00
58243;BME280;50118;53.232;8.252;2024-02-14T04:58:25;100980.81;;;5.72;100.00
58243;BME280;50118;53.232;8.252;2024-02-14T05:00:52;100977.44;;;5.70;100.00
58243;BME280;50118;53.232;8.252;2024-02-14T05:03:18;100978.28;;;5.70;100.00
58243;BME280;50118;53.232;8.252;2024-02-14T05:05:43;100973.13;;;5.69;100.00
58243;BME280;50118;53.232;8.252;2024-02-14T05:08:09;100974.59;;;5.73;100.00
58243;BME280;50118;53.232;8.252;2024-02-14T05:10:34;100967.19;;;5.78;100.00
58243;BME280;50118;53.232;8.252;2024-02-14T05:13:00;100973.94;;;5.82;100.00
58243;BME280;50118;53.232;8.252;2024-02-14T05:15:26;100973.00;;;5.83;100.00
58243;BME280;50118;53.232;8.252;2024-02-14T05:17:52;100964.53;;;5.91;100.00
58243;BME280;50118;53.232;8.252;2024-02-14T05:20:17;100961.63;;;5.94;100.00
58243;BME280;50118;53.232;8.252;2024-02-14T05:22:43;100966.91;;;5.94;100.00
58243;BME280;50118;53.232;8.252;2024-02-14T05:25:09;100961.75;;;5.92;100.00
58243;BME280;50118;53.232;8.252;2024-02-14T05:27:35;100972.44;;;6.04;100.00
58243;BME280;50118;53.232;8.252;2024-02-14T05:30:04;100956.78;;;6.01;100.00
58243;BME280;50118;53.232;8.252;2024-02-14T05:32:36;100959.94;;;6.06;100.00
58243;BME280;50118;53.232;8.252;2024-02-14T05:35:01;100963.31;;;6.08;100.00
58243;BME280;50118;53.232;8.252;2024-02-14T05:37:31;100956.75;;;6.13;100.00
58243;BME280;50118;53.232;8.252;2024-02-14T05:39:56;100957.50;;;6.15;100.00
58243;BME280;50118;53.232;8.252;2024-02-14T05:42:22;100948.25;;;6.21;100.00
58243;BME280;50118;53.232;8.252;2024-02-14T05:44:48;100952.59;;;6.22;100.00
58243;BME280;50118;53.232;8.252;2024-02-14T05:47:13;100952.50;;;6.24;100.00
58243;BME280;50118;53.232;8.252;2024-02-14T05:49:40;100945.50;;;6.23;100.00
58243;BME280;50118;53.232;8.252;2024-02-14T05:52:08;100954.56;;;6.31;100.00
58243;BME280;50118;53.232;8.252;2024-02-14T05:54:34;100949.53;;;6.28;100.00
58243;BME280;50118;53.232;8.252;2024-02-14T05:57:00;100954.34;;;6.34;100.00
58243;BME280;50118;53.232;8.252;2024-02-14T05:59:29;100954.22;;;6.36;100.00
58243;BME280;50118;53.232;8.252;2024-02-14T06:01:55;100960.63;;;6.45;100.00
58243;BME280;50118;53.232;8.252;2024-02-14T06:04:21;100945.63;;;6.45;100.00
58243;BME280;50118;53.232;8.252;2024-02-14T06:06:46;100953.00;;;6.53;100.00
58243;BME280;50118;53.232;8.252;2024-02-14T06:09:12;100950.06;;;6.45;100.00
58243;BME280;50118;53.232;8.252;2024-02-14T06:11:38;100953.94;;;6.52;100.00
58243;BME280;50118;53.232;8.252;2024-02-14T06:14:08;100965.41;;;6.64;100.00
58243;BME280;50118;53.232;8.252;2024-02-14T06:16:37;100961.53;;;6.57;100.00
58243;BME280;50118;53.232;8.252;2024-02-14T06:19:04;100961.22;;;6.61;100.00
58243;BME280;50118;53.232;8.252;2024-02-14T06:21:30;100965.19;;;6.67;100.00
58243;BME280;50118;53.232;8.252;2024-02-14T06:23:55;100969.06;;;6.74;100.00
58243;BME280;50118;53.232;8.252;2024-02-14T06:26:22;100966.41;;;6.74;100.00
58243;BME280;50118;53.232;8.252;2024-02-14T06:28:48;100970.75;;;6.75;100.00
58243;BME280;50118;53.232;8.252;2024-02-14T06:31:19;100973.31;;;6.77;100.00
58243;BME280;50118;53.232;8.252;2024-02-14T06:33:47;100971.41;;;6.90;100.00
58243;BME280;50118;53.232;8.252;2024-02-14T06:36:13;100980.53;;;6.86;100.00
58243;BME280;50118;53.232;8.252;2024-02-14T06:38:38;100975.84;;;6.89;100.00
58243;BME280;50118;53.232;8.252;2024-02-14T06:41:04;100974.06;;;6.90;100.00
58243;BME280;50118;53.232;8.252;2024-02-14T06:43:29;100978.88;;;6.85;100.00
58243;BME280;50118;53.232;8.252;2024-02-14T06:45:55;100985.50;;;6.90;100.00
58243;BME280;50118;53.232;8.252;2024-02-14T06:48:21;100987.59;;;6.98;100.00
58243;BME280;50118;53.232;8.252;2024-02-14T06:50:49;100978.22;;;7.05;100.00
58243;BME280;50118;53.232;8.252;2024-02-14T06:53:15;100994.59;;;7.10;100.00
58243;BME280;50118;53.232;8.252;2024-02-14T06:55:40;100989.53;;;7.07;100.00
58243;BME280;50118;53.232;8.252;2024-02-14T06:58:06;101009.50;;;7.11;100.00
58243;BME280;50118;53.232;8.252;2024-02-14T07:00:32;100999.41;;;7.17;100.00
58243;BME280;50118;53.232;8.252;2024-02-14T07:02:57;101004.25;;;7.23;100.00
58243;BME280;50118;53.232;8.252;2024-02-14T07:05:23;101002.56;;;7.22;100.00
58243;BME280;50118;53.232;8.252;2024-02-14T07:07:48;101008.59;;;7.24;100.00
58243;BME280;50118;53.232;8.252;2024-02-14T07:10:13;101014.41;;;7.29;100.00
58243;BME280;50118;53.232;8.252;2024-02-14T07:12:39;101015.22;;;7.29;100.00
58243;BME280;50118;53.232;8.252;2024-02-14T07:15:05;101013.41;;;7.30;100.00
58243;BME280;50118;53.232;8.252;2024-02-14T07:17:31;101020.19;;;7.34;100.00
58243;BME280;50118;53.232;8.252;2024-02-14T07:19:57;101015.38;;;7.39;100.00
58243;BME280;50118;53.232;8.252;2024-02-14T07:22:22;101022.84;;;7.45;100.00
58243;BME280;50118;53.232;8.252;2024-02-14T07:24:48;101028.03;;;7.47;100.00
58243;BME280;50118;53.232;8.252;2024-02-14T07:27:14;101021.66;;;7.50;100.00
58243;BME280;50118;53.232;8.252;2024-02-14T07:29:40;101028.31;;;7.66;100.00
58243;BME280;50118;53.232;8.252;2024-02-14T07:32:06;101034.81;;;7.74;100.00
58243;BME280;50118;53.232;8.252;2024-02-14T07:34:34;101034.09;;;7.72;100.00
58243;BME280;50118;53.232;8.252;2024-02-14T07:36:59;101035.88;;;7.71;100.00
58243;BME280;50118;53.232;8.252;2024-02-14T07:39:24;101024.31;;;7.72;100.00
58243;BME280;50118;53.232;8.252;2024-02-14T07:41:50;101031.31;;;7.73;100.00
58243;BME280;50118;53.232;8.252;2024-02-14T07:44:16;101030.56;;;7.71;100.00
58243;BME280;50118;53.232;8.252;2024-02-14T07:46:41;101039.16;;;7.75;100.00
58243;BME280;50118;53.232;8.252;2024-02-14T07:49:06;101034.94;;;7.83;100.00
58243;BME280;50118;53.232;8.252;2024-02-14T07:51:33;101036.84;;;7.81;100.00
58243;BME280;50118;53.232;8.252;2024-02-14T07:54:03;101043.63;;;7.85;100.00
58243;BME280;50118;53.232;8.252;2024-02-14T07:56:29;101043.16;;;7.92;100.00
58243;BME280;50118;53.232;8.252;2024-02-14T07:58:54;101043.63;;;7.85;100.00
58243;BME280;50118;53.232;8.252;2024-02-14T08:01:20;101046.28;;;7.97;100.00
58243;BME280;50118;53.232;8.252;2024-02-14T08:03:48;101055.31;;;7.94;100.00
58243;BME280;50118;53.232;8.252;2024-02-14T08:06:14;101048.94;;;7.97;100.00
58243;BME280;50118;53.232;8.252;2024-02-14T08:08:39;101050.25;;;8.02;100.00
58243;BME280;50118;53.232;8.252;2024-02-14T08:11:05;101066.78;;;8.06;100.00
58243;BME280;50118;53.232;8.252;2024-02-14T08:13:31;101059.16;;;8.13;100.00
58243;BME280;50118;53.232;8.252;2024-02-14T08:15:56;101061.22;;;8.09;100.00
58243;BME280;50118;53.232;8.252;2024-02-14T08:18:26;101051.81;;;8.16;100.00
58243;BME280;50118;53.232;8.252;2024-02-14T08:20:54;101056.88;;;8.19;100.00
58243;BME280;50118;53.232;8.252;2024-02-14T08:23:20;101061.81;;;8.24;100.00
58243;BME280;50118;53.232;8.252;2024-02-14T08:25:46;101063.13;;;8.30;100.00
58243;BME280;50118;53.232;8.252;2024-02-14T08:28:11;101067.81;;;8.37;100.00
58243;BME280;50118;53.232;8.252;2024-02-14T08:30:37;101066.16;;;8.36;100.00
58243;BME280;50118;53.232;8.252;2024-02-14T08:33:03;101067.97;;;8.47;100.00
58243;BME280;50118;53.232;8.252;2024-02-14T08:35:28;101067.25;;;8.56;100.00
58243;BME280;50118;53.232;8.252;2024-02-14T08:37:54;101064.91;;;8.63;100.00
58243;BME280;50118;53.232;8.252;2024-02-14T08:40:20;101077.34;;;8.63;100.00
58243;BME280;50118;53.232;8.252;2024-02-14T08:42:45;101075.22;;;8.56;100.00
58243;BME280;50118;53.232;8.252;2024-02-14T08:45:11;101080.59;;;8.66;100.00
58243;BME280;50118;53.232;8.252;2024-02-14T08:47:37;101074.22;;;8.57;100.00
58243;BME280;50118;53.232;8.252;2024-02-14T08:50:05;101074.91;;;8.71;100.00
58243;BME280;50118;53.232;8.252;2024-02-14T08:52:31;101081.28;;;8.79;100.00
58243;BME280;50118;53.232;8.252;2024-02-14T08:54:57;101080.44;;;8.79;100.00
58243;BME280;50118;53.232;8.252;2024-02-14T08:57:23;101086.47;;;8.81;100.00
58243;BME280;50118;53.232;8.252;2024-02-14T08:59:49;101086.72;;;8.78;100.00
58243;BME280;50118;53.232;8.252;2024-02-14T09:02:15;101088.06;;;8.84;100.00
58243;BME280;50118;53.232;8.252;2024-02-14T09:04:42;101090.84;;;8.82;100.00
58243;BME280;50118;53.232;8.252;2024-02-14T09:07:07;101087.78;;;8.87;100.00
58243;BME280;50118;53.232;8.252;2024-02-14T09:09:33;101093.56;;;8.92;100.00
58243;BME280;50118;53.232;8.252;2024-02-14T09:11:58;101094.38;;;9.04;100.00
58243;BME280;50118;53.232;8.252;2024-02-14T09:14:28;101101.28;;;8.95;100.00
58243;BME280;50118;53.232;8.252;2024-02-14T09:16:54;101106.25;;;8.88;100.00
58243;BME280;50118;53.232;8.252;2024-02-14T09:19:19;101107.44;;;8.95;100.00
58243;BME280;50118;53.232;8.252;2024-02-14T09:21:44;101105.75;;;8.94;100.00
58243;BME280;50118;53.232;8.252;2024-02-14T09:24:10;101108.28;;;8.96;100.00
58243;BME280;50118;53.232;8.252;2024-02-14T09:26:36;101107.19;;;8.98;100.00
58243;BME280;50118;53.232;8.252;2024-02-14T09:29:03;101106.94;;;9.02;100.00
58243;BME280;50118;53.232;8.252;2024-02-14T09:31:28;101101.63;;;9.02;100.00
58243;BME280;50118;53.232;8.252;2024-02-14T09:33:54;101107.88;;;9.12;100.00
58243;BME280;50118;53.232;8.252;2024-02-14T09:36:22;101118.34;;;9.25;100.00
58243;BME280;50118;53.232;8.252;2024-02-14T09:38:48;101116.31;;;9.17;100.00
58243;BME280;50118;53.232;8.252;2024-02-14T09:41:36;101125.44;;;9.24;100.00
58243;BME280;50118;53.232;8.252;2024-02-14T09:44:03;101127.63;;;9.30;100.00
58243;BME280;50118;53.232;8.252;2024-02-14T09:46:28;101118.94;;;9.28;100.00
58243;BME280;50118;53.232;8.252;2024-02-14T09:48:56;101124.25;;;9.28;100.00
58243;BME280;50118;53.232;8.252;2024-02-14T09:51:23;101134.66;;;9.20;100.00
58243;BME280;50118;53.232;8.252;2024-02-14T09:53:50;101139.94;;;9.31;100.00
58243;BME280;50118;53.232;8.252;2024-02-14T09:56:16;101136.81;;;9.26;100.00
58243;BME280;50118;53.232;8.252;2024-02-14T09:58:45;101141.13;;;9.39;100.00
58243;BME280;50118;53.232;8.252;2024-02-14T10:01:14;101133.47;;;9.45;100.00
58243;BME280;50118;53.232;8.252;2024-02-14T10:03:40;101140.59;;;9.45;100.00
58243;BME280;50118;53.232;8.252;2024-02-14T10:06:06;101138.78;;;9.45;100.00
58243;BME280;50118;53.232;8.252;2024-02-14T10:08:31;101139.25;;;9.50;100.00
58243;BME280;50118;53.232;8.252;2024-02-14T10:10:57;101145.66;;;9.48;100.00
58243;BME280;50118;53.232;8.252;2024-02-14T10:13:29;101145.53;;;9.49;100.00
58243;BME280;50118;53.232;8.252;2024-02-14T10:15:56;101146.38;;;9.50;100.00
58243;BME280;50118;53.232;8.252;2024-02-14T10:18:22;101149.94;;;9.60;100.00
58243;BME280;50118;53.232;8.252;2024-02-14T10:20:55;101156.38;;;9.58;100.00
58243;BME280;50118;53.232;8.252;2024-02-14T10:23:21;101162.78;;;9.55;100.00
58243;BME280;50118;53.232;8.252;2024-02-14T10:25:50;101159.94;;;9.47;100.00
58243;BME280;50118;53.232;8.252;2024-02-14T10:28:18;101166.94;;;9.48;100.00
58243;BME280;50118;53.232;8.252;2024-02-14T10:30:48;101164.47;;;9.56;100.00
58243;BME280;50118;53.232;8.252;2024-02-14T10:33:15;101167.47;;;9.63;100.00
58243;BME280;50118;53.232;8.252;2024-02-14T10:35:41;101166.84;;;9.70;100.00
58243;BME280;50118;53.232;8.252;2024-02-14T10:38:08;101176.03;;;9.66;100.00
58243;BME280;50118;53.232;8.252;2024-02-14T10:40:36;101173.97;;;9.70;100.00
58243;BME280;50118;53.232;8.252;2024-02-14T10:43:05;101176.19;;;9.86;100.00
58243;BME280;50118;53.232;8.252;2024-02-14T10:45:30;101175.66;;;9.92;100.00
58243;BME280;50118;53.232;8.252;2024-02-14T10:47:57;101180.25;;;9.90;100.00
58243;BME280;50118;53.232;8.252;2024-02-14T10:50:28;101187.09;;;9.83;100.00
58243;BME280;50118;53.232;8.252;2024-02-14T10:52:57;101180.00;;;9.93;100.00
58243;BME280;50118;53.232;8.252;2024-02-14T10:55:29;101190.13;;;9.99;100.00
58243;BME280;50118;53.232;8.252;2024-02-14T10:57:55;101184.09;;;9.97;100.00
58243;BME280;50118;53.232;8.252;2024-02-14T11:00:20;101185.97;;;10.06;100.00
58243;BME280;50118;53.232;8.252;2024-02-14T11:02:47;101187.00;;;9.94;100.00
58243;BME280;50118;53.232;8.252;2024-02-14T11:05:14;101191.63;;;9.92;100.00
58243;BME280;50118;53.232;8.252;2024-02-14T11:07:46;101195.78;;;9.85;100.00
58243;BME280;50118;53.232;8.252;2024-02-14T11:10:16;101192.78;;;9.99;100.00
58243;BME280;50118;53.232;8.252;2024-02-14T11:12:42;101197.19;;;9.89;100.00
58243;BME280;50118;53.232;8.252;2024-02-14T11:15:20;101189.72;;;10.04;100.00
58243;BME280;50118;53.232;8.252;2024-02-14T11:17:46;101191.69;;;10.02;100.00
58243;BME280;50118;53.232;8.252;2024-02-14T11:22:57;101189.50;;;9.86;100.00
58243;BME280;50118;53.232;8.252;2024-02-14T11:25:28;101193.69;;;9.67;100.00
58243;BME280;50118;53.232;8.252;2024-02-14T11:27:55;101186.41;;;9.69;100.00
58243;BME280;50118;53.232;8.252;2024-02-14T11:30:34;101192.91;;;9.77;100.00
58243;BME280;50118;53.232;8.252;2024-02-14T11:33:22;101195.44;;;9.78;100.00
58243;BME280;50118;53.232;8.252;2024-02-14T11:35:53;101198.47;;;9.73;100.00
58243;BME280;50118;53.232;8.252;2024-02-14T11:38:19;101198.69;;;9.82;100.00
58243;BME280;50118;53.232;8.252;2024-02-14T11:40:45;101186.41;;;9.69;100.00
58243;BME280;50118;53.232;8.252;2024-02-14T11:43:14;101198.56;;;9.83;100.00
58243;BME280;50118;53.232;8.252;2024-02-14T11:45:42;101198.06;;;9.89;100.00
58243;BME280;50118;53.232;8.252;2024-02-14T11:48:09;101202.06;;;9.84;100.00
58243;BME280;50118;53.232;8.252;2024-02-14T11:50:36;101205.72;;;9.83;100.00
58243;BME280;50118;53.232;8.252;2024-02-14T11:53:01;101208.63;;;9.80;100.00
58243;BME280;50118;53.232;8.252;2024-02-14T11:55:29;101208.63;;;9.80;100.00
58243;BME280;50118;53.232;8.252;2024-02-14T11:57:55;101206.53;;;9.83;100.00
58243;BME280;50118;53.232;8.252;2024-02-14T12:00:22;101206.91;;;9.79;100.00
58243;BME280;50118;53.232;8.252;2024-02-14T12:02:47;101198.56;;;9.83;100.00
58243;BME280;50118;53.232;8.252;2024-02-14T12:05:15;101203.31;;;9.80;100.00
58243;BME280;50118;53.232;8.252;2024-02-14T12:07:41;101206.91;;;9.79;100.00
58243;BME280;50118;53.232;8.252;2024-02-14T12:10:07;101203.75;;;9.85;100.00
58243;BME280;50118;53.232;8.252;2024-02-14T12:12:32;101204.47;;;9.87;100.00
58243;BME280;50118;53.232;8.252;2024-02-14T12:15:01;101207.31;;;9.95;100.00
58243;BME280;50118;53.232;8.252;2024-02-14T12:17:26;101206.16;;;9.88;100.00
58243;BME280;50118;53.232;8.252;2024-02-14T12:19:52;101205.47;;;9.86;100.00
58243;BME280;50118;53.232;8.252;2024-02-14T12:22:18;101201.75;;;9.98;100.00
58243;BME280;50118;53.232;8.252;2024-02-14T12:24:45;101200.84;;;9.88;100.00
58243;BME280;50118;53.232;8.252;2024-02-14T12:27:10;101202.06;;;9.84;100.00
58243;BME280;50118;53.232;8.252;2024-02-14T12:29:36;101210.69;;;9.97;100.00
58243;BME280;50118;53.232;8.252;2024-02-14T12:32:05;101208.50;;;10.02;100.00
58243;BME280;50118;53.232;8.252;2024-02-14T12:34:32;101203.75;;;10.06;100.00
58243;BME280;50118;53.232;8.252;2024-02-14T12:36:57;101198.41;;;10.06;100.00
58243;BME280;50118;53.232;8.252;2024-02-14T12:39:23;101206.72;;;10.13;100.00
58243;BME280;50118;53.232;8.252;2024-02-14T12:41:51;101208.94;;;10.07;100.00
58243;BME280;50118;53.232;8.252;2024-02-14T12:44:17;101199.91;;;10.20;100.00
58243;BME280;50118;53.232;8.252;2024-02-14T12:46:43;101213.69;;;10.25;100.00
58243;BME280;50118;53.232;8.252;2024-02-14T12:49:09;101214.66;;;10.24;100.00